Salt Lake City, Utah
Traffic Map
Current Weather Conditions
Salt Lake City, Utah
Overcast Light Rain
Overcast
68°
Feels Like: 68°
Wind Chill: 68° Ceiling: 10000
Heat Index: 68° Visibility: 10mi
Dew Point: 63° Wind: 0mph
Humidity: 84% Direction: ° ()
Pressure: 30.2in Gusts: 0mph
Raw Report DataKSLC 290853Z 00000KT 10SM -RA FEW070 OVC100 20/17 A3020 RMK AO2 RAB51 SLP168 P0000 60000 T02000172 56010
Traffic Incident Summary
Active as of:
Severity:
Category:
InformationThere was an issue retrieving the traffic information for this location. Please try a different location or try again shortly.
Advertisements
Track Severe Weather on mobile